DLH06E LPPT-EDDM
Flight info
| Callsign | DLH06E |
|---|---|
| Flight time | 2h 34m |
| Altitude | 36000 |
| Route | IXIDA DCT RIVRO DCT TOSDI DCT ZMR DCT NEA DCT DGO DCT LPA DCT GOSVI DCT TOPTU DCT TOU DCT GAI DCT MEN DCT NINUN DCT LATAM DCT ETREK DCT LTP DCT SOPLO DCT OMASI DCT KINNI DCT LAMUR DCT KORED DCT NUNRI T103 BETOS |
| Aircraft | A320/M-SDE2E3FGIJ1LORWXYZ/HB1 |
Departure
| Time | 2026-05-07 18:39 |
|---|---|
| Airport | Lisbon Humberto Delgado Airport (LPPT) |
Arrival
| Time | 2026-05-07 21:13 |
|---|---|
| Airport | Munich Airport (EDDM) |
| Time | Latitude | Longitude | Altitude | Speed | Heading |
|---|---|---|---|---|---|
| 2026-05-07 17:59 | 38.76937 | -9.13065 | 336 ft | 0 kts | 78° |
| 2026-05-07 18:27 | 38.76934 | -9.13082 | 332 ft | 4 kts | 78° |
| 2026-05-07 18:27 | 38.76930 | -9.13105 | 333 ft | 4 kts | 77° |
| 2026-05-07 18:28 | 38.76928 | -9.13141 | 335 ft | 4 kts | 122° |
| 2026-05-07 18:28 | 38.76947 | -9.13157 | 335 ft | 4 kts | 167° |
| 2026-05-07 18:28 | 38.76941 | -9.13155 | 334 ft | 4 kts | 168° |
| 2026-05-07 18:28 | 38.76918 | -9.13149 | 337 ft | 1 kts | 168° |
| 2026-05-07 18:29 | 38.76917 | -9.13149 | 333 ft | 0 kts | 168° |
| 2026-05-07 18:32 | 38.76901 | -9.13144 | 339 ft | 6 kts | 168° |
| 2026-05-07 18:32 | 38.76863 | -9.13134 | 338 ft | 5 kts | 168° |
| 2026-05-07 18:32 | 38.76819 | -9.13123 | 336 ft | 9 kts | 174° |
| 2026-05-07 18:33 | 38.76778 | -9.13187 | 339 ft | 12 kts | 256° |
| 2026-05-07 18:33 | 38.76757 | -9.13307 | 347 ft | 15 kts | 258° |
| 2026-05-07 18:33 | 38.76706 | -9.13417 | 347 ft | 15 kts | 216° |
| 2026-05-07 18:33 | 38.76650 | -9.13507 | 345 ft | 13 kts | 257° |
| 2026-05-07 18:34 | 38.76630 | -9.13636 | 355 ft | 16 kts | 258° |
| 2026-05-07 18:34 | 38.76606 | -9.13778 | 346 ft | 17 kts | 258° |
| 2026-05-07 18:34 | 38.76582 | -9.13930 | 349 ft | 18 kts | 258° |
| 2026-05-07 18:34 | 38.76529 | -9.14056 | 351 ft | 14 kts | 229° |
| 2026-05-07 18:35 | 38.76498 | -9.14178 | 351 ft | 17 kts | 281° |
| 2026-05-07 18:35 | 38.76529 | -9.14280 | 335 ft | 8 kts | 293° |
| 2026-05-07 18:35 | 38.76538 | -9.14305 | 334 ft | 0 kts | 293° |
| 2026-05-07 18:37 | 38.76543 | -9.14322 | 332 ft | 7 kts | 293° |
| 2026-05-07 18:37 | 38.76580 | -9.14404 | 332 ft | 12 kts | 327° |
| 2026-05-07 18:37 | 38.76636 | -9.14393 | 333 ft | 0 kts | 22° |
| 2026-05-07 18:38 | 38.76645 | -9.14388 | 333 ft | 10 kts | 22° |
| 2026-05-07 18:38 | 38.76960 | -9.14223 | 354 ft | 85 kts | 22° |
| 2026-05-07 18:38 | 38.77697 | -9.13828 | 363 ft | 143 kts | 21° |
| 2026-05-07 18:38 | 38.78707 | -9.13271 | 699 ft | 162 kts | 18° |
| 2026-05-07 18:39 | 38.79747 | -9.12704 | 1428 ft | 163 kts | 18° |
| 2026-05-07 18:39 | 38.80823 | -9.12135 | 1961 ft | 174 kts | 17° |
| 2026-05-07 18:39 | 38.81984 | -9.11409 | 2214 ft | 198 kts | 28° |
| 2026-05-07 18:39 | 38.83242 | -9.10444 | 2458 ft | 224 kts | 27° |
| 2026-05-07 18:40 | 38.84650 | -9.09361 | 2877 ft | 248 kts | 28° |
| 2026-05-07 18:40 | 38.86181 | -9.08177 | 3454 ft | 262 kts | 28° |
| 2026-05-07 18:40 | 38.87764 | -9.06948 | 4191 ft | 270 kts | 29° |
| 2026-05-07 18:40 | 38.89386 | -9.05670 | 4977 ft | 277 kts | 33° |
| 2026-05-07 18:41 | 38.90872 | -9.04045 | 5721 ft | 284 kts | 43° |
| 2026-05-07 18:41 | 38.92343 | -9.02320 | 6532 ft | 289 kts | 44° |
| 2026-05-07 18:41 | 38.93841 | -9.00565 | 7294 ft | 294 kts | 44° |
| 2026-05-07 18:41 | 38.95358 | -8.98786 | 8119 ft | 297 kts | 44° |
| 2026-05-07 18:42 | 38.96891 | -8.96991 | 8923 ft | 300 kts | 44° |
| 2026-05-07 18:42 | 38.98446 | -8.95177 | 9728 ft | 303 kts | 44° |
| 2026-05-07 18:42 | 39.00026 | -8.93334 | 10286 ft | 315 kts | 44° |
| 2026-05-07 18:42 | 39.01705 | -8.91367 | 10502 ft | 338 kts | 44° |
| 2026-05-07 18:43 | 39.03478 | -8.89294 | 10983 ft | 349 kts | 44° |
| 2026-05-07 18:43 | 39.05290 | -8.87180 | 11644 ft | 354 kts | 44° |
| 2026-05-07 18:43 | 39.07125 | -8.85038 | 12340 ft | 358 kts | 44° |
| 2026-05-07 18:43 | 39.08976 | -8.82874 | 13024 ft | 362 kts | 44° |
| 2026-05-07 18:44 | 39.10847 | -8.80683 | 13713 ft | 365 kts | 44° |
| 2026-05-07 18:44 | 39.12733 | -8.78469 | 14297 ft | 369 kts | 44° |
| 2026-05-07 18:44 | 39.14611 | -8.76261 | 14878 ft | 373 kts | 44° |
| 2026-05-07 18:44 | 39.16532 | -8.73991 | 15451 ft | 377 kts | 46° |
| 2026-05-07 18:45 | 39.18307 | -8.71493 | 15978 ft | 380 kts | 50° |
| 2026-05-07 18:45 | 39.20061 | -8.68928 | 16595 ft | 382 kts | 50° |
| 2026-05-07 18:45 | 39.21821 | -8.66346 | 17202 ft | 385 kts | 50° |
| 2026-05-07 18:45 | 39.23593 | -8.63743 | 17783 ft | 388 kts | 50° |
| 2026-05-07 18:46 | 39.25378 | -8.61116 | 18340 ft | 391 kts | 50° |
| 2026-05-07 18:46 | 39.27182 | -8.58466 | 18805 ft | 395 kts | 50° |
| 2026-05-07 18:46 | 39.29002 | -8.55797 | 19284 ft | 398 kts | 50° |
| 2026-05-07 18:46 | 39.30841 | -8.53098 | 19734 ft | 402 kts | 50° |
| 2026-05-07 18:47 | 39.32696 | -8.50367 | 20171 ft | 407 kts | 50° |
| 2026-05-07 18:47 | 39.34570 | -8.47605 | 20588 ft | 411 kts | 49° |
| 2026-05-07 18:47 | 39.36463 | -8.44811 | 21020 ft | 415 kts | 49° |
| 2026-05-07 18:47 | 39.38375 | -8.41986 | 21418 ft | 420 kts | 49° |
| 2026-05-07 18:48 | 39.40308 | -8.39130 | 21824 ft | 424 kts | 49° |
| 2026-05-07 18:48 | 39.42262 | -8.36245 | 22225 ft | 428 kts | 49° |
| 2026-05-07 18:48 | 39.44235 | -8.33329 | 22622 ft | 433 kts | 49° |
| 2026-05-07 18:48 | 39.46225 | -8.30382 | 22994 ft | 438 kts | 49° |
| 2026-05-07 18:49 | 39.48240 | -8.27401 | 23372 ft | 442 kts | 48° |
| 2026-05-07 18:49 | 39.50273 | -8.24394 | 23715 ft | 446 kts | 48° |
| 2026-05-07 18:49 | 39.52321 | -8.21360 | 24082 ft | 448 kts | 49° |
| 2026-05-07 18:49 | 39.54369 | -8.18314 | 24499 ft | 449 kts | 49° |
| 2026-05-07 18:50 | 39.56419 | -8.15255 | 24882 ft | 450 kts | 49° |
| 2026-05-07 18:50 | 39.58475 | -8.12180 | 25238 ft | 452 kts | 48° |
| 2026-05-07 18:50 | 39.60539 | -8.09092 | 25603 ft | 454 kts | 48° |
| 2026-05-07 18:50 | 39.62615 | -8.05992 | 25946 ft | 456 kts | 48° |
| 2026-05-07 18:51 | 39.64703 | -8.02878 | 26281 ft | 458 kts | 48° |
| 2026-05-07 18:51 | 39.66824 | -7.99783 | 26621 ft | 460 kts | 46° |
| 2026-05-07 18:51 | 39.69035 | -7.96768 | 26953 ft | 462 kts | 44° |
| 2026-05-07 18:51 | 39.71309 | -7.93818 | 27288 ft | 464 kts | 43° |
| 2026-05-07 18:52 | 39.73621 | -7.90885 | 27632 ft | 465 kts | 42° |
| 2026-05-07 18:52 | 39.75942 | -7.87941 | 27945 ft | 467 kts | 43° |
| 2026-05-07 18:52 | 39.78265 | -7.84966 | 28271 ft | 470 kts | 43° |
| 2026-05-07 18:52 | 39.80581 | -7.81953 | 28575 ft | 472 kts | 43° |
| 2026-05-07 18:53 | 39.82896 | -7.78905 | 28870 ft | 475 kts | 43° |
| 2026-05-07 18:53 | 39.85216 | -7.75830 | 29177 ft | 477 kts | 43° |
| 2026-05-07 18:53 | 39.87538 | -7.72745 | 29471 ft | 479 kts | 43° |
| 2026-05-07 18:53 | 39.89877 | -7.69642 | 29755 ft | 481 kts | 43° |
| 2026-05-07 18:54 | 39.92227 | -7.66526 | 30024 ft | 483 kts | 43° |
| 2026-05-07 18:54 | 39.94555 | -7.63443 | 30253 ft | 485 kts | 43° |
| 2026-05-07 18:54 | 39.96923 | -7.60303 | 30483 ft | 487 kts | 43° |
| 2026-05-07 18:54 | 39.99297 | -7.57146 | 30686 ft | 489 kts | 43° |
| 2026-05-07 18:55 | 40.01677 | -7.53974 | 30943 ft | 490 kts | 43° |
| 2026-05-07 18:55 | 40.04055 | -7.50803 | 31299 ft | 488 kts | 43° |
| 2026-05-07 18:55 | 40.06427 | -7.47639 | 31633 ft | 487 kts | 43° |
| 2026-05-07 18:55 | 40.08799 | -7.44477 | 31946 ft | 487 kts | 43° |
| 2026-05-07 18:56 | 40.11165 | -7.41326 | 32238 ft | 486 kts | 43° |
| 2026-05-07 18:56 | 40.13537 | -7.38165 | 32539 ft | 486 kts | 42° |
| 2026-05-07 18:56 | 40.15897 | -7.35012 | 32843 ft | 486 kts | 42° |
| 2026-05-07 18:56 | 40.18263 | -7.31849 | 33154 ft | 486 kts | 42° |
| 2026-05-07 18:57 | 40.20625 | -7.28690 | 33444 ft | 485 kts | 42° |
| 2026-05-07 18:57 | 40.22977 | -7.25535 | 33756 ft | 485 kts | 42° |
| 2026-05-07 18:57 | 40.25334 | -7.22368 | 34044 ft | 485 kts | 43° |
| 2026-05-07 18:57 | 40.27682 | -7.19203 | 34349 ft | 483 kts | 42° |
| 2026-05-07 18:58 | 40.30020 | -7.16050 | 34633 ft | 482 kts | 42° |
| 2026-05-07 18:58 | 40.32361 | -7.12895 | 34867 ft | 482 kts | 42° |
| 2026-05-07 18:58 | 40.34701 | -7.09744 | 35094 ft | 482 kts | 42° |
| 2026-05-07 18:58 | 40.37040 | -7.06588 | 35308 ft | 483 kts | 42° |
| 2026-05-07 18:59 | 40.39380 | -7.03425 | 35515 ft | 483 kts | 42° |
| 2026-05-07 18:59 | 40.41718 | -7.00262 | 35715 ft | 483 kts | 42° |
| 2026-05-07 18:59 | 40.44062 | -6.97092 | 35845 ft | 484 kts | 42° |
| 2026-05-07 19:00 | 40.48723 | -6.90766 | 35871 ft | 481 kts | 42° |
| 2026-05-07 19:00 | 40.53370 | -6.84445 | 35873 ft | 481 kts | 42° |
| 2026-05-07 19:01 | 40.58008 | -6.78129 | 35873 ft | 479 kts | 41° |
| 2026-05-07 19:01 | 40.62636 | -6.71825 | 35871 ft | 478 kts | 40° |
| 2026-05-07 19:02 | 40.67481 | -6.65859 | 35870 ft | 476 kts | 36° |
| 2026-05-07 19:02 | 40.72494 | -6.60188 | 35887 ft | 475 kts | 35° |
| 2026-05-07 19:03 | 40.77492 | -6.54488 | 35885 ft | 475 kts | 36° |
| 2026-05-07 19:03 | 40.82419 | -6.48676 | 35883 ft | 475 kts | 37° |
| 2026-05-07 19:04 | 40.87321 | -6.42832 | 35892 ft | 474 kts | 37° |
| 2026-05-07 19:04 | 40.92216 | -6.37009 | 35894 ft | 473 kts | 37° |
| 2026-05-07 19:05 | 40.97114 | -6.31201 | 35909 ft | 473 kts | 36° |
| 2026-05-07 19:05 | 41.02004 | -6.25396 | 35900 ft | 472 kts | 37° |
| 2026-05-07 19:06 | 41.06849 | -6.19629 | 35894 ft | 471 kts | 37° |
| 2026-05-07 19:06 | 41.14149 | -6.10903 | 35890 ft | 471 kts | 37° |
| 2026-05-07 19:07 | 41.19009 | -6.05071 | 35925 ft | 471 kts | 36° |
| 2026-05-07 19:07 | 41.23862 | -5.99245 | 35914 ft | 470 kts | 36° |
| 2026-05-07 19:08 | 41.28708 | -5.93421 | 35911 ft | 469 kts | 36° |
| 2026-05-07 19:08 | 41.33539 | -5.87592 | 35907 ft | 469 kts | 36° |
| 2026-05-07 19:09 | 41.38366 | -5.81762 | 35902 ft | 468 kts | 36° |
| 2026-05-07 19:09 | 41.43188 | -5.75923 | 35917 ft | 468 kts | 36° |
| 2026-05-07 19:10 | 41.48003 | -5.70083 | 35929 ft | 468 kts | 36° |
| 2026-05-07 19:10 | 41.52544 | -5.63806 | 35919 ft | 477 kts | 49° |
| 2026-05-07 19:11 | 41.55693 | -5.55938 | 35906 ft | 484 kts | 62° |
| 2026-05-07 19:11 | 41.58427 | -5.47714 | 35908 ft | 484 kts | 62° |
| 2026-05-07 19:12 | 41.61169 | -5.39498 | 35899 ft | 484 kts | 62° |
| 2026-05-07 19:12 | 41.63895 | -5.31260 | 35921 ft | 485 kts | 62° |
| 2026-05-07 19:13 | 41.66615 | -5.22999 | 35944 ft | 485 kts | 62° |
| 2026-05-07 19:13 | 41.69333 | -5.14738 | 35948 ft | 485 kts | 62° |
| 2026-05-07 19:14 | 41.72049 | -5.06474 | 35951 ft | 485 kts | 62° |
| 2026-05-07 19:14 | 41.74752 | -4.98199 | 35955 ft | 485 kts | 62° |
| 2026-05-07 19:15 | 41.77444 | -4.89913 | 35975 ft | 485 kts | 62° |
| 2026-05-07 19:15 | 41.80134 | -4.81630 | 35967 ft | 484 kts | 62° |
| 2026-05-07 19:16 | 41.82820 | -4.73352 | 35954 ft | 484 kts | 62° |
| 2026-05-07 19:16 | 41.85496 | -4.65073 | 35937 ft | 484 kts | 62° |
| 2026-05-07 19:17 | 41.87713 | -4.58178 | 35937 ft | 484 kts | 62° |
| 2026-05-07 19:17 | 41.90370 | -4.49881 | 35967 ft | 484 kts | 62° |
| 2026-05-07 19:18 | 41.93016 | -4.41596 | 35961 ft | 482 kts | 62° |
| 2026-05-07 19:18 | 41.95653 | -4.33337 | 35954 ft | 480 kts | 62° |
| 2026-05-07 19:19 | 41.98280 | -4.25093 | 35949 ft | 480 kts | 62° |
| 2026-05-07 19:19 | 42.00896 | -4.16840 | 35944 ft | 479 kts | 62° |
| 2026-05-07 19:20 | 42.03517 | -4.08597 | 35938 ft | 479 kts | 61° |
| 2026-05-07 19:20 | 42.06335 | -4.00503 | 35936 ft | 477 kts | 59° |
| 2026-05-07 19:21 | 42.09254 | -3.92476 | 35938 ft | 477 kts | 59° |
| 2026-05-07 19:21 | 42.12133 | -3.84419 | 35937 ft | 478 kts | 60° |
| 2026-05-07 19:22 | 42.14966 | -3.76322 | 35960 ft | 478 kts | 61° |
| 2026-05-07 19:22 | 42.17784 | -3.68223 | 35953 ft | 477 kts | 61° |
| 2026-05-07 19:23 | 42.20597 | -3.60137 | 35965 ft | 476 kts | 61° |
| 2026-05-07 19:23 | 42.23405 | -3.52046 | 35963 ft | 476 kts | 61° |
| 2026-05-07 19:24 | 42.26204 | -3.43952 | 35960 ft | 476 kts | 61° |
| 2026-05-07 19:24 | 42.28979 | -3.35910 | 35969 ft | 475 kts | 61° |
| 2026-05-07 19:25 | 42.31785 | -3.27765 | 35965 ft | 475 kts | 61° |
| 2026-05-07 19:25 | 42.34561 | -3.19662 | 35956 ft | 475 kts | 62° |
| 2026-05-07 19:26 | 42.37316 | -3.11613 | 35974 ft | 475 kts | 62° |
| 2026-05-07 19:26 | 42.40087 | -3.03520 | 35969 ft | 474 kts | 62° |
| 2026-05-07 19:27 | 42.42845 | -2.95435 | 35962 ft | 473 kts | 62° |
| 2026-05-07 19:27 | 42.45035 | -2.87046 | 35956 ft | 476 kts | 78° |
| 2026-05-07 19:28 | 42.45489 | -2.78109 | 35950 ft | 477 kts | 88° |
| 2026-05-07 19:28 | 42.45610 | -2.69120 | 35951 ft | 477 kts | 88° |
| 2026-05-07 19:29 | 42.45730 | -2.60128 | 35961 ft | 477 kts | 88° |
| 2026-05-07 19:29 | 42.45841 | -2.51148 | 35966 ft | 477 kts | 88° |
| 2026-05-07 19:30 | 42.45949 | -2.42168 | 35964 ft | 477 kts | 88° |
| 2026-05-07 19:30 | 42.46140 | -2.33195 | 35963 ft | 476 kts | 82° |
| 2026-05-07 19:31 | 42.47440 | -2.24433 | 35972 ft | 474 kts | 76° |
| 2026-05-07 19:31 | 42.48897 | -2.15721 | 35967 ft | 474 kts | 76° |
| 2026-05-07 19:32 | 42.50333 | -2.07005 | 35968 ft | 474 kts | 76° |
| 2026-05-07 19:32 | 42.51767 | -1.98285 | 35967 ft | 474 kts | 76° |
| 2026-05-07 19:33 | 42.53199 | -1.89568 | 35970 ft | 474 kts | 77° |
| 2026-05-07 19:33 | 42.54623 | -1.80851 | 35973 ft | 473 kts | 77° |
| 2026-05-07 19:34 | 42.56033 | -1.72138 | 35974 ft | 473 kts | 77° |
| 2026-05-07 19:34 | 42.57439 | -1.63435 | 35969 ft | 472 kts | 77° |
| 2026-05-07 19:35 | 42.58843 | -1.54731 | 35971 ft | 472 kts | 77° |
| 2026-05-07 19:35 | 42.60233 | -1.46031 | 35966 ft | 471 kts | 78° |
| 2026-05-07 19:36 | 42.61615 | -1.37335 | 35985 ft | 471 kts | 78° |
| 2026-05-07 19:36 | 42.62986 | -1.28647 | 35987 ft | 470 kts | 78° |
| 2026-05-07 19:37 | 42.64355 | -1.19974 | 36005 ft | 470 kts | 78° |
| 2026-05-07 19:37 | 42.65703 | -1.11361 | 35998 ft | 469 kts | 78° |
| 2026-05-07 19:38 | 42.67045 | -1.02706 | 36008 ft | 468 kts | 78° |
| 2026-05-07 19:38 | 42.68382 | -0.94063 | 36008 ft | 467 kts | 78° |
| 2026-05-07 19:39 | 42.69722 | -0.85428 | 36011 ft | 467 kts | 78° |
| 2026-05-07 19:39 | 42.71049 | -0.76802 | 36013 ft | 466 kts | 79° |
| 2026-05-07 19:40 | 42.72363 | -0.68167 | 36012 ft | 466 kts | 79° |
| 2026-05-07 19:40 | 42.73664 | -0.59545 | 36015 ft | 465 kts | 79° |
| 2026-05-07 19:41 | 42.74963 | -0.50922 | 36009 ft | 465 kts | 79° |
| 2026-05-07 19:41 | 42.76259 | -0.42298 | 36013 ft | 465 kts | 79° |
| 2026-05-07 19:42 | 42.77548 | -0.33675 | 36012 ft | 465 kts | 79° |
| 2026-05-07 19:42 | 42.78841 | -0.25052 | 36008 ft | 465 kts | 76° |
| 2026-05-07 19:43 | 42.81338 | -0.16962 | 36000 ft | 465 kts | 57° |
| 2026-05-07 19:43 | 42.85308 | -0.10031 | 35985 ft | 465 kts | 50° |
| 2026-05-07 19:44 | 42.89406 | -0.03212 | 35968 ft | 465 kts | 50° |
| 2026-05-07 19:44 | 42.93488 | 0.03639 | 35972 ft | 465 kts | 51° |
| 2026-05-07 19:45 | 42.97580 | 0.10490 | 35979 ft | 466 kts | 51° |
| 2026-05-07 19:45 | 43.01681 | 0.17348 | 35980 ft | 466 kts | 50° |
| 2026-05-07 19:46 | 43.05779 | 0.24219 | 35985 ft | 466 kts | 51° |
| 2026-05-07 19:46 | 43.09864 | 0.31110 | 35984 ft | 466 kts | 51° |
| 2026-05-07 19:47 | 43.13944 | 0.38009 | 35978 ft | 466 kts | 51° |
| 2026-05-07 19:47 | 43.18029 | 0.44922 | 35966 ft | 467 kts | 51° |
| 2026-05-07 19:48 | 43.22112 | 0.51841 | 35966 ft | 467 kts | 51° |
| 2026-05-07 19:48 | 43.26191 | 0.58779 | 35976 ft | 467 kts | 51° |
| 2026-05-07 19:49 | 43.30264 | 0.65729 | 35974 ft | 467 kts | 51° |
| 2026-05-07 19:49 | 43.34338 | 0.72689 | 35981 ft | 467 kts | 51° |
| 2026-05-07 19:50 | 43.38381 | 0.79603 | 35965 ft | 467 kts | 51° |
| 2026-05-07 19:50 | 43.42446 | 0.86567 | 35971 ft | 466 kts | 51° |
| 2026-05-07 19:51 | 43.46496 | 0.93532 | 35981 ft | 466 kts | 51° |
| 2026-05-07 19:51 | 43.50541 | 1.00508 | 35976 ft | 466 kts | 51° |
| 2026-05-07 19:52 | 43.54582 | 1.07498 | 35969 ft | 466 kts | 52° |
| 2026-05-07 19:52 | 43.58619 | 1.14496 | 35968 ft | 466 kts | 52° |
| 2026-05-07 19:53 | 43.62655 | 1.21505 | 35954 ft | 466 kts | 51° |
| 2026-05-07 19:53 | 43.66687 | 1.28519 | 35952 ft | 466 kts | 52° |
| 2026-05-07 19:54 | 43.70662 | 1.35594 | 35956 ft | 466 kts | 53° |
| 2026-05-07 19:54 | 43.74497 | 1.42827 | 35954 ft | 466 kts | 54° |
| 2026-05-07 19:55 | 43.78301 | 1.50090 | 35962 ft | 466 kts | 54° |
| 2026-05-07 19:55 | 43.82133 | 1.57333 | 35964 ft | 466 kts | 53° |
| 2026-05-07 19:56 | 43.85976 | 1.64565 | 35972 ft | 466 kts | 54° |
| 2026-05-07 19:56 | 43.89810 | 1.71796 | 35987 ft | 466 kts | 54° |
| 2026-05-07 19:57 | 43.93634 | 1.79042 | 35985 ft | 465 kts | 54° |
| 2026-05-07 19:57 | 43.97430 | 1.86311 | 35989 ft | 465 kts | 55° |
| 2026-05-07 19:58 | 44.01107 | 1.93693 | 35978 ft | 465 kts | 56° |
| 2026-05-07 19:58 | 44.04746 | 2.01115 | 35994 ft | 464 kts | 56° |
| 2026-05-07 19:59 | 44.08397 | 2.08505 | 35993 ft | 463 kts | 56° |
| 2026-05-07 19:59 | 44.12058 | 2.15884 | 35996 ft | 463 kts | 56° |
| 2026-05-07 20:00 | 44.15710 | 2.23265 | 35994 ft | 463 kts | 56° |
| 2026-05-07 20:00 | 44.19358 | 2.30659 | 35986 ft | 463 kts | 56° |
| 2026-05-07 20:01 | 44.22982 | 2.38025 | 35994 ft | 464 kts | 56° |
| 2026-05-07 20:01 | 44.26616 | 2.45459 | 35999 ft | 464 kts | 56° |
| 2026-05-07 20:02 | 44.30248 | 2.52900 | 36003 ft | 464 kts | 56° |
| 2026-05-07 20:02 | 44.33880 | 2.60343 | 36004 ft | 464 kts | 56° |
| 2026-05-07 20:03 | 44.37507 | 2.67802 | 35993 ft | 464 kts | 56° |
| 2026-05-07 20:03 | 44.41129 | 2.75283 | 35998 ft | 465 kts | 56° |
| 2026-05-07 20:04 | 44.44145 | 2.81509 | 36004 ft | 465 kts | 56° |
| 2026-05-07 20:04 | 44.47777 | 2.89015 | 36007 ft | 466 kts | 56° |
| 2026-05-07 20:05 | 44.51427 | 2.96582 | 36010 ft | 466 kts | 56° |
| 2026-05-07 20:05 | 44.55019 | 3.04061 | 36013 ft | 466 kts | 56° |
| 2026-05-07 20:06 | 44.58629 | 3.11611 | 36011 ft | 466 kts | 56° |
| 2026-05-07 20:06 | 44.62182 | 3.19228 | 36013 ft | 467 kts | 59° |
| 2026-05-07 20:07 | 44.65407 | 3.27147 | 36019 ft | 467 kts | 62° |
| 2026-05-07 20:07 | 44.68481 | 3.35177 | 36021 ft | 467 kts | 62° |
| 2026-05-07 20:08 | 44.71609 | 3.43174 | 36019 ft | 467 kts | 61° |
| 2026-05-07 20:08 | 44.74792 | 3.51127 | 36025 ft | 467 kts | 61° |
| 2026-05-07 20:09 | 44.77973 | 3.59085 | 36026 ft | 467 kts | 61° |
| 2026-05-07 20:10 | 44.82716 | 3.71057 | 36029 ft | 467 kts | 61° |
| 2026-05-07 20:10 | 44.85860 | 3.79057 | 36029 ft | 467 kts | 61° |
| 2026-05-07 20:11 | 44.89012 | 3.87065 | 36016 ft | 467 kts | 61° |
| 2026-05-07 20:11 | 44.92166 | 3.95086 | 36014 ft | 468 kts | 61° |
| 2026-05-07 20:12 | 44.95314 | 4.03126 | 36028 ft | 468 kts | 61° |
| 2026-05-07 20:12 | 44.98447 | 4.11178 | 36033 ft | 468 kts | 62° |
| 2026-05-07 20:13 | 45.01575 | 4.19228 | 36034 ft | 467 kts | 62° |
| 2026-05-07 20:13 | 45.04702 | 4.27280 | 36023 ft | 468 kts | 62° |
| 2026-05-07 20:14 | 45.07802 | 4.35306 | 36019 ft | 468 kts | 62° |
| 2026-05-07 20:14 | 45.10920 | 4.43405 | 36032 ft | 469 kts | 62° |
| 2026-05-07 20:15 | 45.14033 | 4.51516 | 36034 ft | 469 kts | 62° |
| 2026-05-07 20:15 | 45.17141 | 4.59630 | 36036 ft | 469 kts | 62° |
| 2026-05-07 20:16 | 45.20245 | 4.67762 | 36013 ft | 469 kts | 62° |
| 2026-05-07 20:16 | 45.23354 | 4.75906 | 36014 ft | 470 kts | 62° |
| 2026-05-07 20:17 | 45.26460 | 4.84069 | 36013 ft | 470 kts | 62° |
| 2026-05-07 20:17 | 45.29553 | 4.92242 | 36029 ft | 470 kts | 62° |
| 2026-05-07 20:18 | 45.32643 | 5.00426 | 36034 ft | 470 kts | 62° |
| 2026-05-07 20:18 | 45.35728 | 5.08607 | 36026 ft | 470 kts | 62° |
| 2026-05-07 20:19 | 45.38809 | 5.16801 | 36024 ft | 470 kts | 62° |
| 2026-05-07 20:19 | 45.41877 | 5.25008 | 36025 ft | 470 kts | 62° |
| 2026-05-07 20:20 | 45.44936 | 5.33230 | 36028 ft | 470 kts | 62° |
| 2026-05-07 20:20 | 45.48072 | 5.41396 | 36033 ft | 469 kts | 56° |
| 2026-05-07 20:21 | 45.52362 | 5.48323 | 36015 ft | 466 kts | 39° |
| 2026-05-07 20:21 | 45.57205 | 5.54474 | 36004 ft | 466 kts | 40° |
| 2026-05-07 20:22 | 45.62047 | 5.60650 | 35993 ft | 467 kts | 40° |
| 2026-05-07 20:22 | 45.66881 | 5.66843 | 35995 ft | 467 kts | 40° |
| 2026-05-07 20:23 | 45.71708 | 5.73054 | 36001 ft | 467 kts | 40° |
| 2026-05-07 20:23 | 45.76504 | 5.79229 | 36008 ft | 467 kts | 40° |
| 2026-05-07 20:24 | 45.81338 | 5.85444 | 36010 ft | 467 kts | 40° |
| 2026-05-07 20:24 | 45.86166 | 5.91664 | 36023 ft | 466 kts | 40° |
| 2026-05-07 20:25 | 45.90986 | 5.97895 | 36024 ft | 466 kts | 40° |
| 2026-05-07 20:25 | 45.95806 | 6.04133 | 36022 ft | 466 kts | 40° |
| 2026-05-07 20:26 | 46.00626 | 6.10382 | 36029 ft | 467 kts | 40° |
| 2026-05-07 20:26 | 46.05438 | 6.16645 | 36036 ft | 466 kts | 40° |
| 2026-05-07 20:27 | 46.09959 | 6.23333 | 36033 ft | 468 kts | 53° |
| 2026-05-07 20:27 | 46.13694 | 6.31004 | 36029 ft | 468 kts | 54° |
| 2026-05-07 20:28 | 46.17437 | 6.38678 | 36013 ft | 468 kts | 53° |
| 2026-05-07 20:28 | 46.21183 | 6.46355 | 36020 ft | 468 kts | 53° |
| 2026-05-07 20:29 | 46.24921 | 6.54049 | 36012 ft | 468 kts | 53° |
| 2026-05-07 20:29 | 46.28651 | 6.61754 | 36009 ft | 467 kts | 54° |
| 2026-05-07 20:30 | 46.32371 | 6.69467 | 36013 ft | 467 kts | 54° |
| 2026-05-07 20:30 | 46.36088 | 6.77185 | 36018 ft | 468 kts | 54° |
| 2026-05-07 20:31 | 46.39766 | 6.84872 | 36021 ft | 467 kts | 53° |
| 2026-05-07 20:31 | 46.43472 | 6.92619 | 36013 ft | 468 kts | 53° |
| 2026-05-07 20:32 | 46.47185 | 7.00386 | 36016 ft | 469 kts | 53° |
| 2026-05-07 20:32 | 46.50891 | 7.08174 | 36016 ft | 469 kts | 54° |
| 2026-05-07 20:33 | 46.54595 | 7.15978 | 36025 ft | 469 kts | 53° |
| 2026-05-07 20:33 | 46.58995 | 7.22868 | 36028 ft | 463 kts | 35° |
| 2026-05-07 20:34 | 46.64499 | 7.27529 | 36015 ft | 456 kts | 21° |
| 2026-05-07 20:34 | 46.70269 | 7.31394 | 36013 ft | 457 kts | 21° |
| 2026-05-07 20:35 | 46.76037 | 7.35292 | 36028 ft | 457 kts | 21° |
| 2026-05-07 20:35 | 46.81694 | 7.39563 | 36016 ft | 462 kts | 32° |
| 2026-05-07 20:36 | 46.86323 | 7.46096 | 36009 ft | 468 kts | 52° |
| 2026-05-07 20:36 | 46.89504 | 7.54417 | 36021 ft | 470 kts | 62° |
| 2026-05-07 20:37 | 46.92427 | 7.62982 | 36018 ft | 471 kts | 62° |
| 2026-05-07 20:37 | 46.95347 | 7.71553 | 36033 ft | 471 kts | 62° |
| 2026-05-07 20:38 | 46.98257 | 7.80139 | 36030 ft | 471 kts | 62° |
| 2026-05-07 20:38 | 47.01163 | 7.88735 | 36035 ft | 471 kts | 62° |
| 2026-05-07 20:39 | 47.04057 | 7.97338 | 36033 ft | 471 kts | 62° |
| 2026-05-07 20:39 | 47.06944 | 8.05954 | 36038 ft | 471 kts | 62° |
| 2026-05-07 20:40 | 47.09831 | 8.14577 | 36062 ft | 471 kts | 62° |
| 2026-05-07 20:40 | 47.12714 | 8.23216 | 36040 ft | 471 kts | 63° |
| 2026-05-07 20:41 | 47.15582 | 8.31865 | 36029 ft | 471 kts | 63° |
| 2026-05-07 20:41 | 47.18447 | 8.40529 | 36026 ft | 472 kts | 63° |
| 2026-05-07 20:42 | 47.21311 | 8.49206 | 36042 ft | 472 kts | 63° |
| 2026-05-07 20:42 | 47.24147 | 8.57847 | 36047 ft | 472 kts | 63° |
| 2026-05-07 20:43 | 47.27001 | 8.66559 | 36067 ft | 473 kts | 63° |
| 2026-05-07 20:43 | 47.29853 | 8.75280 | 36056 ft | 473 kts | 63° |
| 2026-05-07 20:44 | 47.32697 | 8.84014 | 36060 ft | 473 kts | 63° |
| 2026-05-07 20:44 | 47.35536 | 8.92756 | 36062 ft | 472 kts | 63° |
| 2026-05-07 20:45 | 47.38361 | 9.01503 | 36058 ft | 472 kts | 63° |
| 2026-05-07 20:45 | 47.41178 | 9.10256 | 36054 ft | 472 kts | 63° |
| 2026-05-07 20:46 | 47.43994 | 9.19010 | 36067 ft | 472 kts | 63° |
| 2026-05-07 20:46 | 47.46794 | 9.27766 | 36060 ft | 471 kts | 63° |
| 2026-05-07 20:47 | 47.49595 | 9.36550 | 35516 ft | 473 kts | 63° |
| 2026-05-07 20:47 | 47.50991 | 9.40931 | 35030 ft | 469 kts | 63° |
| 2026-05-07 20:47 | 47.52371 | 9.45275 | 34554 ft | 465 kts | 63° |
| 2026-05-07 20:47 | 47.53736 | 9.49590 | 34084 ft | 462 kts | 63° |
| 2026-05-07 20:48 | 47.55089 | 9.53873 | 33539 ft | 458 kts | 63° |
| 2026-05-07 20:48 | 47.56435 | 9.58137 | 32994 ft | 455 kts | 63° |
| 2026-05-07 20:48 | 47.57769 | 9.62370 | 32463 ft | 452 kts | 63° |
| 2026-05-07 20:48 | 47.59088 | 9.66581 | 31940 ft | 449 kts | 64° |
| 2026-05-07 20:49 | 47.60364 | 9.70790 | 31446 ft | 446 kts | 64° |
| 2026-05-07 20:49 | 47.61596 | 9.74993 | 30945 ft | 443 kts | 65° |
| 2026-05-07 20:49 | 47.62800 | 9.79185 | 30456 ft | 440 kts | 65° |
| 2026-05-07 20:49 | 47.63988 | 9.83348 | 29942 ft | 437 kts | 65° |
| 2026-05-07 20:50 | 47.65171 | 9.87473 | 29354 ft | 434 kts | 65° |
| 2026-05-07 20:50 | 47.66385 | 9.91675 | 28807 ft | 455 kts | 65° |
| 2026-05-07 20:50 | 47.67661 | 9.96061 | 28250 ft | 468 kts | 65° |
| 2026-05-07 20:50 | 47.68951 | 10.00496 | 27714 ft | 468 kts | 65° |
| 2026-05-07 20:51 | 47.70236 | 10.04916 | 27187 ft | 465 kts | 65° |
| 2026-05-07 20:51 | 47.71506 | 10.09311 | 26667 ft | 461 kts | 65° |
| 2026-05-07 20:51 | 47.72742 | 10.13618 | 26162 ft | 458 kts | 66° |
| 2026-05-07 20:51 | 47.73583 | 10.16550 | 25824 ft | 455 kts | 66° |
| 2026-05-07 20:52 | 47.75214 | 10.22240 | 25170 ft | 449 kts | 66° |
| 2026-05-07 20:52 | 47.76434 | 10.26496 | 24681 ft | 446 kts | 66° |
| 2026-05-07 20:52 | 47.77643 | 10.30717 | 24208 ft | 442 kts | 66° |
| 2026-05-07 20:52 | 47.78843 | 10.34909 | 23743 ft | 439 kts | 66° |
| 2026-05-07 20:53 | 47.80028 | 10.39068 | 23201 ft | 435 kts | 66° |
| 2026-05-07 20:53 | 47.80823 | 10.41861 | 22828 ft | 433 kts | 66° |
| 2026-05-07 20:53 | 47.81991 | 10.45969 | 22286 ft | 429 kts | 66° |
| 2026-05-07 20:53 | 47.83149 | 10.50043 | 21755 ft | 426 kts | 66° |
| 2026-05-07 20:54 | 47.84297 | 10.54095 | 21234 ft | 423 kts | 66° |
| 2026-05-07 20:54 | 47.85430 | 10.58113 | 20714 ft | 420 kts | 66° |
| 2026-05-07 20:54 | 47.86555 | 10.62110 | 20211 ft | 417 kts | 66° |
| 2026-05-07 20:54 | 47.87669 | 10.66074 | 19715 ft | 413 kts | 67° |
| 2026-05-07 20:55 | 47.88773 | 10.70012 | 19229 ft | 410 kts | 67° |
| 2026-05-07 20:55 | 47.89889 | 10.73980 | 18752 ft | 433 kts | 66° |
| 2026-05-07 20:55 | 47.91067 | 10.78153 | 18264 ft | 439 kts | 67° |
| 2026-05-07 20:55 | 47.92248 | 10.82352 | 17722 ft | 439 kts | 67° |
| 2026-05-07 20:56 | 47.93421 | 10.86542 | 17187 ft | 436 kts | 67° |
| 2026-05-07 20:56 | 47.94583 | 10.90708 | 16667 ft | 434 kts | 67° |
| 2026-05-07 20:56 | 47.95733 | 10.94848 | 16153 ft | 431 kts | 67° |
| 2026-05-07 20:56 | 47.96874 | 10.98968 | 15647 ft | 428 kts | 67° |
| 2026-05-07 20:57 | 47.98008 | 11.03064 | 15153 ft | 425 kts | 66° |
| 2026-05-07 20:57 | 47.99129 | 11.07113 | 14658 ft | 418 kts | 66° |
| 2026-05-07 20:57 | 48.00230 | 11.11083 | 14181 ft | 411 kts | 66° |
| 2026-05-07 20:57 | 48.01316 | 11.15005 | 13672 ft | 406 kts | 66° |
| 2026-05-07 20:58 | 48.02383 | 11.18876 | 13140 ft | 400 kts | 66° |
| 2026-05-07 20:58 | 48.03437 | 11.22702 | 12615 ft | 395 kts | 66° |
| 2026-05-07 20:58 | 48.04483 | 11.26471 | 12098 ft | 390 kts | 66° |
| 2026-05-07 20:58 | 48.05520 | 11.30186 | 11590 ft | 385 kts | 67° |
| 2026-05-07 20:59 | 48.06516 | 11.33874 | 11083 ft | 380 kts | 68° |
| 2026-05-07 20:59 | 48.07460 | 11.37534 | 10601 ft | 375 kts | 69° |
| 2026-05-07 20:59 | 48.08356 | 11.41160 | 10187 ft | 368 kts | 69° |
| 2026-05-07 20:59 | 48.09202 | 11.44687 | 10060 ft | 352 kts | 70° |
| 2026-05-07 21:00 | 48.10006 | 11.48082 | 10085 ft | 343 kts | 70° |
| 2026-05-07 21:00 | 48.10803 | 11.51439 | 10086 ft | 342 kts | 70° |
| 2026-05-07 21:00 | 48.11602 | 11.54786 | 10085 ft | 342 kts | 69° |
| 2026-05-07 21:00 | 48.12405 | 11.58132 | 10085 ft | 342 kts | 69° |
| 2026-05-07 21:01 | 48.13211 | 11.61480 | 10086 ft | 342 kts | 69° |
| 2026-05-07 21:01 | 48.14018 | 11.64833 | 10097 ft | 342 kts | 70° |
| 2026-05-07 21:01 | 48.14823 | 11.68188 | 10097 ft | 342 kts | 70° |
| 2026-05-07 21:01 | 48.15627 | 11.71542 | 10099 ft | 342 kts | 70° |
| 2026-05-07 21:02 | 48.16424 | 11.74878 | 10097 ft | 332 kts | 70° |
| 2026-05-07 21:02 | 48.17167 | 11.77991 | 10102 ft | 304 kts | 70° |
| 2026-05-07 21:02 | 48.17846 | 11.80847 | 10102 ft | 281 kts | 70° |
| 2026-05-07 21:02 | 48.18488 | 11.83569 | 9851 ft | 273 kts | 72° |
| 2026-05-07 21:03 | 48.18858 | 11.86339 | 9330 ft | 270 kts | 83° |
| 2026-05-07 21:03 | 48.19068 | 11.89119 | 8824 ft | 267 kts | 84° |
| 2026-05-07 21:03 | 48.19255 | 11.91868 | 8325 ft | 264 kts | 84° |
| 2026-05-07 21:03 | 48.19436 | 11.94583 | 7834 ft | 260 kts | 84° |
| 2026-05-07 21:04 | 48.19613 | 11.97272 | 7405 ft | 259 kts | 84° |
| 2026-05-07 21:04 | 48.19786 | 11.99937 | 7116 ft | 256 kts | 84° |
| 2026-05-07 21:04 | 48.19957 | 12.02578 | 6810 ft | 254 kts | 84° |
| 2026-05-07 21:04 | 48.20124 | 12.05163 | 6506 ft | 252 kts | 84° |
| 2026-05-07 21:05 | 48.20291 | 12.07764 | 6172 ft | 250 kts | 84° |
| 2026-05-07 21:05 | 48.20463 | 12.10349 | 5911 ft | 248 kts | 81° |
| 2026-05-07 21:05 | 48.21086 | 12.12713 | 5651 ft | 245 kts | 50° |
| 2026-05-07 21:05 | 48.22409 | 12.14230 | 5394 ft | 240 kts | 18° |
| 2026-05-07 21:06 | 48.24025 | 12.14776 | 5142 ft | 238 kts | 6° |
| 2026-05-07 21:06 | 48.25669 | 12.15088 | 5021 ft | 238 kts | 5° |
| 2026-05-07 21:06 | 48.27312 | 12.15367 | 4990 ft | 238 kts | 5° |
| 2026-05-07 21:06 | 48.28962 | 12.15639 | 4994 ft | 238 kts | 5° |
| 2026-05-07 21:07 | 48.30610 | 12.15908 | 4985 ft | 238 kts | 5° |
| 2026-05-07 21:07 | 48.32259 | 12.16177 | 4994 ft | 238 kts | 5° |
| 2026-05-07 21:07 | 48.33909 | 12.16437 | 4988 ft | 238 kts | 5° |
| 2026-05-07 21:07 | 48.35548 | 12.16368 | 4986 ft | 235 kts | 340° |
| 2026-05-07 21:08 | 48.36822 | 12.14957 | 4990 ft | 230 kts | 300° |
| 2026-05-07 21:08 | 48.37164 | 12.12679 | 4999 ft | 227 kts | 260° |
| 2026-05-07 21:08 | 48.36771 | 12.10458 | 4998 ft | 214 kts | 257° |
| 2026-05-07 21:08 | 48.36558 | 12.08308 | 4997 ft | 202 kts | 263° |
| 2026-05-07 21:09 | 48.36409 | 12.06231 | 4874 ft | 198 kts | 263° |
| 2026-05-07 21:09 | 48.36262 | 12.04194 | 4665 ft | 193 kts | 263° |
| 2026-05-07 21:09 | 48.36115 | 12.02212 | 4396 ft | 189 kts | 263° |
| 2026-05-07 21:09 | 48.35971 | 12.00274 | 4141 ft | 184 kts | 263° |
| 2026-05-07 21:10 | 48.35830 | 11.98375 | 3896 ft | 181 kts | 263° |
| 2026-05-07 21:10 | 48.35691 | 11.96514 | 3658 ft | 178 kts | 263° |
| 2026-05-07 21:10 | 48.35553 | 11.94677 | 3425 ft | 176 kts | 263° |
| 2026-05-07 21:10 | 48.35417 | 11.92865 | 3192 ft | 173 kts | 263° |
| 2026-05-07 21:11 | 48.35288 | 11.91157 | 2976 ft | 157 kts | 264° |
| 2026-05-07 21:11 | 48.35170 | 11.89582 | 2762 ft | 148 kts | 264° |
| 2026-05-07 21:11 | 48.34943 | 11.86582 | 2352 ft | 144 kts | 264° |
| 2026-05-07 21:12 | 48.34831 | 11.85079 | 2149 ft | 142 kts | 264° |
| 2026-05-07 21:12 | 48.34720 | 11.83633 | 1952 ft | 141 kts | 264° |
| 2026-05-07 21:12 | 48.34606 | 11.82175 | 1748 ft | 140 kts | 264° |
| 2026-05-07 21:12 | 48.34497 | 11.80719 | 1556 ft | 140 kts | 264° |
| 2026-05-07 21:13 | 48.34394 | 11.79327 | 1480 ft | 118 kts | 263° |
| 2026-05-07 21:13 | 48.34333 | 11.78552 | 1474 ft | 33 kts | 263° |
| 2026-05-07 21:13 | 48.34308 | 11.78215 | 1485 ft | 32 kts | 265° |
| 2026-05-07 21:13 | 48.34343 | 11.77897 | 1480 ft | 31 kts | 290° |
| 2026-05-07 21:14 | 48.34418 | 11.77636 | 1481 ft | 20 kts | 292° |
| 2026-05-07 21:14 | 48.34472 | 11.77492 | 1481 ft | 15 kts | 330° |
| 2026-05-07 21:14 | 48.34534 | 11.77581 | 1485 ft | 15 kts | 85° |
| 2026-05-07 21:14 | 48.34543 | 11.77735 | 1485 ft | 15 kts | 84° |
| 2026-05-07 21:15 | 48.34555 | 11.77888 | 1480 ft | 15 kts | 83° |
| 2026-05-07 21:15 | 48.34566 | 11.78038 | 1475 ft | 14 kts | 83° |
| 2026-05-07 21:15 | 48.34580 | 11.78211 | 1478 ft | 19 kts | 83° |
| 2026-05-07 21:15 | 48.34597 | 11.78425 | 1481 ft | 22 kts | 83° |
| 2026-05-07 21:16 | 48.34616 | 11.78659 | 1485 ft | 23 kts | 83° |
| 2026-05-07 21:16 | 48.34636 | 11.78911 | 1485 ft | 25 kts | 83° |
| 2026-05-07 21:16 | 48.34657 | 11.79154 | 1482 ft | 23 kts | 83° |
| 2026-05-07 21:16 | 48.34675 | 11.79395 | 1485 ft | 20 kts | 83° |
| 2026-05-07 21:17 | 48.34706 | 11.79550 | 1480 ft | 12 kts | 28° |
| 2026-05-07 21:17 | 48.34783 | 11.79562 | 1485 ft | 11 kts | 2° |
| 2026-05-07 21:17 | 48.34856 | 11.79558 | 1485 ft | 10 kts | 354° |
| 2026-05-07 21:17 | 48.34919 | 11.79546 | 1485 ft | 8 kts | 353° |
| 2026-05-07 21:18 | 48.34972 | 11.79537 | 1485 ft | 7 kts | 353° |
| 2026-05-07 21:18 | 48.35015 | 11.79530 | 1485 ft | 6 kts | 353° |
| 2026-05-07 21:18 | 48.35049 | 11.79523 | 1482 ft | 4 kts | 351° |
| 2026-05-07 21:18 | 48.35067 | 11.79469 | 1482 ft | 10 kts | 267° |
| 2026-05-07 21:19 | 48.35058 | 11.79382 | 1485 ft | 4 kts | 263° |
| 2026-05-07 21:19 | 48.35057 | 11.79366 | 1485 ft | 0 kts | 264° |